sensor_id;sensor_type;location;lat;lon;timestamp;P1;durP1;ratioP1;P2;durP2;ratioP2
34900;SDS011;21112;51.976;5.660;2022-10-31T00:01:01;6.10;;;2.70;;
34900;SDS011;21112;51.976;5.660;2022-10-31T00:03:27;5.88;;;2.70;;
34900;SDS011;21112;51.976;5.660;2022-10-31T00:05:57;5.55;;;2.67;;
34900;SDS011;21112;51.976;5.660;2022-10-31T00:08:23;5.15;;;2.50;;
34900;SDS011;21112;51.976;5.660;2022-10-31T00:10:50;7.30;;;2.60;;
34900;SDS011;21112;51.976;5.660;2022-10-31T00:13:16;5.18;;;2.45;;
34900;SDS011;21112;51.976;5.660;2022-10-31T00:15:43;7.68;;;2.65;;
34900;SDS011;21112;51.976;5.660;2022-10-31T00:18:10;6.78;;;2.90;;
34900;SDS011;21112;51.976;5.660;2022-10-31T00:20:37;5.63;;;2.33;;
34900;SDS011;21112;51.976;5.660;2022-10-31T00:23:05;5.60;;;2.58;;
34900;SDS011;21112;51.976;5.660;2022-10-31T00:25:33;5.95;;;2.58;;
34900;SDS011;21112;51.976;5.660;2022-10-31T00:28:00;6.63;;;2.65;;
34900;SDS011;21112;51.976;5.660;2022-10-31T00:30:26;9.70;;;3.53;;
34900;SDS011;21112;51.976;5.660;2022-10-31T00:32:53;6.93;;;2.95;;
34900;SDS011;21112;51.976;5.660;2022-10-31T00:35:20;7.40;;;2.70;;
34900;SDS011;21112;51.976;5.660;2022-10-31T00:37:47;4.90;;;2.28;;
34900;SDS011;21112;51.976;5.660;2022-10-31T00:40:15;5.15;;;2.45;;
34900;SDS011;21112;51.976;5.660;2022-10-31T00:42:41;5.72;;;2.92;;
34900;SDS011;21112;51.976;5.660;2022-10-31T00:45:08;5.85;;;2.38;;
34900;SDS011;21112;51.976;5.660;2022-10-31T00:47:35;9.73;;;2.83;;
34900;SDS011;21112;51.976;5.660;2022-10-31T00:50:02;6.40;;;2.53;;
34900;SDS011;21112;51.976;5.660;2022-10-31T00:52:29;6.65;;;2.60;;
34900;SDS011;21112;51.976;5.660;2022-10-31T00:54:56;5.72;;;2.42;;
34900;SDS011;21112;51.976;5.660;2022-10-31T00:57:24;7.40;;;2.78;;
34900;SDS011;21112;51.976;5.660;2022-10-31T00:59:50;5.95;;;2.42;;
34900;SDS011;21112;51.976;5.660;2022-10-31T01:02:17;5.20;;;2.38;;
34900;SDS011;21112;51.976;5.660;2022-10-31T01:04:43;6.85;;;2.70;;
34900;SDS011;21112;51.976;5.660;2022-10-31T01:07:10;8.02;;;2.65;;
34900;SDS011;21112;51.976;5.660;2022-10-31T01:09:39;5.50;;;2.65;;
34900;SDS011;21112;51.976;5.660;2022-10-31T01:12:06;10.93;;;4.38;;
34900;SDS011;21112;51.976;5.660;2022-10-31T01:14:34;7.10;;;3.40;;
34900;SDS011;21112;51.976;5.660;2022-10-31T01:17:01;5.03;;;2.35;;
34900;SDS011;21112;51.976;5.660;2022-10-31T01:19:27;6.15;;;2.25;;
34900;SDS011;21112;51.976;5.660;2022-10-31T01:21:55;10.57;;;2.85;;
34900;SDS011;21112;51.976;5.660;2022-10-31T01:24:21;6.13;;;2.40;;
34900;SDS011;21112;51.976;5.660;2022-10-31T01:26:48;3.78;;;2.28;;
34900;SDS011;21112;51.976;5.660;2022-10-31T01:29:15;6.35;;;2.80;;
34900;SDS011;21112;51.976;5.660;2022-10-31T01:31:43;8.88;;;2.53;;
34900;SDS011;21112;51.976;5.660;2022-10-31T01:34:10;5.95;;;2.63;;
34900;SDS011;21112;51.976;5.660;2022-10-31T01:36:38;7.82;;;2.47;;
34900;SDS011;21112;51.976;5.660;2022-10-31T01:39:06;9.25;;;2.67;;
34900;SDS011;21112;51.976;5.660;2022-10-31T01:41:33;5.88;;;2.75;;
34900;SDS011;21112;51.976;5.660;2022-10-31T01:44:01;4.90;;;2.42;;
34900;SDS011;21112;51.976;5.660;2022-10-31T01:46:29;6.30;;;2.47;;
34900;SDS011;21112;51.976;5.660;2022-10-31T01:49:00;4.72;;;2.58;;
34900;SDS011;21112;51.976;5.660;2022-10-31T01:51:30;8.52;;;2.47;;
34900;SDS011;21112;51.976;5.660;2022-10-31T01:53:59;5.22;;;2.42;;
34900;SDS011;21112;51.976;5.660;2022-10-31T01:56:27;6.95;;;2.53;;
34900;SDS011;21112;51.976;5.660;2022-10-31T01:58:54;5.68;;;2.72;;
34900;SDS011;21112;51.976;5.660;2022-10-31T02:01:21;5.72;;;2.60;;
34900;SDS011;21112;51.976;5.660;2022-10-31T02:03:47;4.85;;;2.38;;
34900;SDS011;21112;51.976;5.660;2022-10-31T02:06:19;6.90;;;2.28;;
34900;SDS011;21112;51.976;5.660;2022-10-31T02:08:48;5.80;;;2.60;;
34900;SDS011;21112;51.976;5.660;2022-10-31T02:11:14;5.97;;;2.58;;
34900;SDS011;21112;51.976;5.660;2022-10-31T02:13:42;6.50;;;2.55;;
34900;SDS011;21112;51.976;5.660;2022-10-31T02:16:09;6.50;;;2.97;;
34900;SDS011;21112;51.976;5.660;2022-10-31T02:18:36;5.85;;;2.28;;
34900;SDS011;21112;51.976;5.660;2022-10-31T02:21:04;6.60;;;2.70;;
34900;SDS011;21112;51.976;5.660;2022-10-31T02:26:26;7.95;;;2.50;;
34900;SDS011;21112;51.976;5.660;2022-10-31T02:29:01;6.03;;;2.70;;
34900;SDS011;21112;51.976;5.660;2022-10-31T02:31:34;7.68;;;2.65;;
34900;SDS011;21112;51.976;5.660;2022-10-31T02:34:05;4.28;;;2.15;;
34900;SDS011;21112;51.976;5.660;2022-10-31T02:36:35;6.28;;;2.65;;
34900;SDS011;21112;51.976;5.660;2022-10-31T02:39:08;7.22;;;2.60;;
34900;SDS011;21112;51.976;5.660;2022-10-31T02:41:40;7.13;;;2.35;;
34900;SDS011;21112;51.976;5.660;2022-10-31T02:44:11;5.55;;;2.50;;
34900;SDS011;21112;51.976;5.660;2022-10-31T02:46:44;6.95;;;2.58;;
34900;SDS011;21112;51.976;5.660;2022-10-31T02:49:12;5.47;;;2.50;;
34900;SDS011;21112;51.976;5.660;2022-10-31T02:51:41;5.32;;;2.55;;
34900;SDS011;21112;51.976;5.660;2022-10-31T02:54:16;6.03;;;2.90;;
34900;SDS011;21112;51.976;5.660;2022-10-31T02:56:43;6.43;;;2.60;;
34900;SDS011;21112;51.976;5.660;2022-10-31T02:59:10;5.22;;;2.22;;
34900;SDS011;21112;51.976;5.660;2022-10-31T03:01:41;4.13;;;2.15;;
34900;SDS011;21112;51.976;5.660;2022-10-31T03:06:53;4.82;;;2.15;;
34900;SDS011;21112;51.976;5.660;2022-10-31T03:09:22;5.38;;;2.60;;
34900;SDS011;21112;51.976;5.660;2022-10-31T03:11:53;6.95;;;2.67;;
34900;SDS011;21112;51.976;5.660;2022-10-31T03:14:21;7.75;;;2.92;;
34900;SDS011;21112;51.976;5.660;2022-10-31T03:16:49;5.88;;;2.53;;
34900;SDS011;21112;51.976;5.660;2022-10-31T03:19:17;6.03;;;2.70;;
34900;SDS011;21112;51.976;5.660;2022-10-31T03:21:45;6.35;;;2.50;;
34900;SDS011;21112;51.976;5.660;2022-10-31T03:24:15;7.55;;;2.75;;
34900;SDS011;21112;51.976;5.660;2022-10-31T03:26:43;7.70;;;3.05;;
34900;SDS011;21112;51.976;5.660;2022-10-31T03:29:11;7.10;;;2.30;;
34900;SDS011;21112;51.976;5.660;2022-10-31T03:34:05;5.05;;;2.28;;
34900;SDS011;21112;51.976;5.660;2022-10-31T03:36:33;5.93;;;2.83;;
34900;SDS011;21112;51.976;5.660;2022-10-31T03:39:01;4.55;;;2.17;;
34900;SDS011;21112;51.976;5.660;2022-10-31T03:41:31;7.75;;;2.53;;
34900;SDS011;21112;51.976;5.660;2022-10-31T03:43:59;5.93;;;2.78;;
34900;SDS011;21112;51.976;5.660;2022-10-31T03:46:27;5.57;;;2.90;;
34900;SDS011;21112;51.976;5.660;2022-10-31T03:48:54;5.45;;;2.58;;
34900;SDS011;21112;51.976;5.660;2022-10-31T03:51:22;8.63;;;2.95;;
34900;SDS011;21112;51.976;5.660;2022-10-31T03:53:51;6.63;;;2.70;;
34900;SDS011;21112;51.976;5.660;2022-10-31T03:56:19;6.30;;;2.85;;
34900;SDS011;21112;51.976;5.660;2022-10-31T03:58:51;4.93;;;2.47;;
34900;SDS011;21112;51.976;5.660;2022-10-31T04:01:20;6.30;;;2.78;;
34900;SDS011;21112;51.976;5.660;2022-10-31T04:03:48;5.95;;;2.28;;
34900;SDS011;21112;51.976;5.660;2022-10-31T04:06:14;5.13;;;2.30;;
34900;SDS011;21112;51.976;5.660;2022-10-31T04:08:44;8.30;;;2.30;;
34900;SDS011;21112;51.976;5.660;2022-10-31T04:11:11;6.30;;;2.80;;
34900;SDS011;21112;51.976;5.660;2022-10-31T04:13:39;5.95;;;3.00;;
34900;SDS011;21112;51.976;5.660;2022-10-31T04:16:09;5.65;;;2.42;;
34900;SDS011;21112;51.976;5.660;2022-10-31T04:18:36;7.05;;;2.90;;
34900;SDS011;21112;51.976;5.660;2022-10-31T04:21:03;6.30;;;2.58;;
34900;SDS011;21112;51.976;5.660;2022-10-31T04:23:31;5.28;;;2.60;;
34900;SDS011;21112;51.976;5.660;2022-10-31T04:25:58;6.28;;;2.90;;
34900;SDS011;21112;51.976;5.660;2022-10-31T04:28:24;5.20;;;2.58;;
34900;SDS011;21112;51.976;5.660;2022-10-31T04:30:51;7.68;;;3.17;;
34900;SDS011;21112;51.976;5.660;2022-10-31T04:33:19;7.15;;;2.95;;
34900;SDS011;21112;51.976;5.660;2022-10-31T04:35:46;7.40;;;2.90;;
34900;SDS011;21112;51.976;5.660;2022-10-31T04:38:13;9.30;;;3.22;;
34900;SDS011;21112;51.976;5.660;2022-10-31T04:40:39;6.97;;;3.03;;
34900;SDS011;21112;51.976;5.660;2022-10-31T04:43:06;5.90;;;2.75;;
34900;SDS011;21112;51.976;5.660;2022-10-31T04:45:33;7.93;;;2.85;;
34900;SDS011;21112;51.976;5.660;2022-10-31T04:48:00;7.78;;;2.95;;
34900;SDS011;21112;51.976;5.660;2022-10-31T04:50:29;6.50;;;2.97;;
34900;SDS011;21112;51.976;5.660;2022-10-31T04:55:21;7.03;;;2.97;;
34900;SDS011;21112;51.976;5.660;2022-10-31T04:57:48;8.15;;;3.17;;
34900;SDS011;21112;51.976;5.660;2022-10-31T05:00:16;6.00;;;2.60;;
34900;SDS011;21112;51.976;5.660;2022-10-31T05:02:43;5.90;;;2.90;;
34900;SDS011;21112;51.976;5.660;2022-10-31T05:05:10;7.40;;;3.40;;
34900;SDS011;21112;51.976;5.660;2022-10-31T05:07:39;6.13;;;2.72;;
34900;SDS011;21112;51.976;5.660;2022-10-31T05:10:07;5.82;;;2.78;;
34900;SDS011;21112;51.976;5.660;2022-10-31T05:12:34;6.97;;;3.05;;
34900;SDS011;21112;51.976;5.660;2022-10-31T05:15:01;7.50;;;2.80;;
34900;SDS011;21112;51.976;5.660;2022-10-31T05:17:28;7.45;;;2.75;;
34900;SDS011;21112;51.976;5.660;2022-10-31T05:19:54;8.60;;;2.92;;
34900;SDS011;21112;51.976;5.660;2022-10-31T05:22:21;7.75;;;3.10;;
34900;SDS011;21112;51.976;5.660;2022-10-31T05:24:49;8.02;;;3.33;;
34900;SDS011;21112;51.976;5.660;2022-10-31T05:27:15;7.75;;;3.30;;
34900;SDS011;21112;51.976;5.660;2022-10-31T05:29:42;7.75;;;3.20;;
34900;SDS011;21112;51.976;5.660;2022-10-31T05:32:09;7.97;;;3.60;;
34900;SDS011;21112;51.976;5.660;2022-10-31T05:34:35;6.50;;;2.92;;
34900;SDS011;21112;51.976;5.660;2022-10-31T05:37:02;8.18;;;2.95;;
34900;SDS011;21112;51.976;5.660;2022-10-31T05:39:28;7.45;;;3.40;;
34900;SDS011;21112;51.976;5.660;2022-10-31T05:41:56;8.70;;;3.00;;
34900;SDS011;21112;51.976;5.660;2022-10-31T05:44:24;8.50;;;3.20;;
34900;SDS011;21112;51.976;5.660;2022-10-31T05:46:50;8.13;;;3.53;;
34900;SDS011;21112;51.976;5.660;2022-10-31T05:49:17;8.68;;;3.20;;
34900;SDS011;21112;51.976;5.660;2022-10-31T05:51:43;7.00;;;3.40;;
34900;SDS011;21112;51.976;5.660;2022-10-31T05:54:10;8.60;;;3.55;;
34900;SDS011;21112;51.976;5.660;2022-10-31T05:56:36;6.68;;;3.15;;
34900;SDS011;21112;51.976;5.660;2022-10-31T05:59:04;7.38;;;2.90;;
34900;SDS011;21112;51.976;5.660;2022-10-31T06:01:31;7.70;;;3.22;;
34900;SDS011;21112;51.976;5.660;2022-10-31T06:03:57;9.90;;;4.55;;
34900;SDS011;21112;51.976;5.660;2022-10-31T06:06:24;5.85;;;3.13;;
34900;SDS011;21112;51.976;5.660;2022-10-31T06:08:50;8.63;;;3.25;;
34900;SDS011;21112;51.976;5.660;2022-10-31T06:11:17;17.17;;;6.30;;
34900;SDS011;21112;51.976;5.660;2022-10-31T06:13:44;8.73;;;3.85;;
34900;SDS011;21112;51.976;5.660;2022-10-31T06:16:12;7.70;;;3.38;;
34900;SDS011;21112;51.976;5.660;2022-10-31T06:18:39;7.30;;;3.38;;
34900;SDS011;21112;51.976;5.660;2022-10-31T06:21:06;7.20;;;3.40;;
34900;SDS011;21112;51.976;5.660;2022-10-31T06:23:33;8.23;;;3.92;;
34900;SDS011;21112;51.976;5.660;2022-10-31T06:25:59;11.32;;;5.45;;
34900;SDS011;21112;51.976;5.660;2022-10-31T06:28:26;10.48;;;3.95;;
34900;SDS011;21112;51.976;5.660;2022-10-31T06:30:53;8.73;;;3.92;;
34900;SDS011;21112;51.976;5.660;2022-10-31T06:33:21;8.85;;;3.58;;
34900;SDS011;21112;51.976;5.660;2022-10-31T06:35:47;8.93;;;3.65;;
34900;SDS011;21112;51.976;5.660;2022-10-31T06:38:14;7.60;;;3.70;;
34900;SDS011;21112;51.976;5.660;2022-10-31T06:40:41;10.38;;;3.55;;
34900;SDS011;21112;51.976;5.660;2022-10-31T06:43:07;12.68;;;5.40;;
34900;SDS011;21112;51.976;5.660;2022-10-31T06:45:36;15.85;;;5.82;;
34900;SDS011;21112;51.976;5.660;2022-10-31T06:48:03;10.45;;;4.80;;
34900;SDS011;21112;51.976;5.660;2022-10-31T06:50:31;8.48;;;3.88;;
34900;SDS011;21112;51.976;5.660;2022-10-31T06:52:58;12.95;;;5.25;;
34900;SDS011;21112;51.976;5.660;2022-10-31T06:55:25;9.07;;;4.32;;
34900;SDS011;21112;51.976;5.660;2022-10-31T06:57:52;9.68;;;3.63;;
34900;SDS011;21112;51.976;5.660;2022-10-31T07:00:18;10.25;;;3.97;;
34900;SDS011;21112;51.976;5.660;2022-10-31T07:02:52;9.50;;;4.28;;
34900;SDS011;21112;51.976;5.660;2022-10-31T07:05:19;10.40;;;4.13;;
34900;SDS011;21112;51.976;5.660;2022-10-31T07:07:47;9.73;;;4.57;;
34900;SDS011;21112;51.976;5.660;2022-10-31T07:10:14;9.57;;;3.83;;
34900;SDS011;21112;51.976;5.660;2022-10-31T07:12:40;7.65;;;3.70;;
34900;SDS011;21112;51.976;5.660;2022-10-31T07:15:07;8.90;;;3.75;;
34900;SDS011;21112;51.976;5.660;2022-10-31T07:17:34;9.27;;;3.88;;
34900;SDS011;21112;51.976;5.660;2022-10-31T07:20:00;14.07;;;6.13;;
34900;SDS011;21112;51.976;5.660;2022-10-31T07:22:32;11.95;;;5.13;;
34900;SDS011;21112;51.976;5.660;2022-10-31T07:25:00;8.48;;;4.00;;
34900;SDS011;21112;51.976;5.660;2022-10-31T07:27:27;10.35;;;4.25;;
34900;SDS011;21112;51.976;5.660;2022-10-31T07:29:53;9.25;;;3.95;;
34900;SDS011;21112;51.976;5.660;2022-10-31T07:32:21;8.98;;;3.80;;
34900;SDS011;21112;51.976;5.660;2022-10-31T07:34:48;12.15;;;4.18;;
34900;SDS011;21112;51.976;5.660;2022-10-31T07:37:14;9.35;;;4.10;;
34900;SDS011;21112;51.976;5.660;2022-10-31T07:39:41;8.57;;;3.67;;
34900;SDS011;21112;51.976;5.660;2022-10-31T07:42:09;6.93;;;3.50;;
34900;SDS011;21112;51.976;5.660;2022-10-31T07:44:36;15.10;;;6.20;;
34900;SDS011;21112;51.976;5.660;2022-10-31T07:47:03;9.57;;;4.25;;
34900;SDS011;21112;51.976;5.660;2022-10-31T07:49:29;16.63;;;6.45;;
34900;SDS011;21112;51.976;5.660;2022-10-31T07:51:56;13.90;;;6.63;;
34900;SDS011;21112;51.976;5.660;2022-10-31T07:56:52;10.35;;;3.80;;
34900;SDS011;21112;51.976;5.660;2022-10-31T07:59:20;17.98;;;6.97;;
34900;SDS011;21112;51.976;5.660;2022-10-31T08:01:47;12.98;;;5.85;;
34900;SDS011;21112;51.976;5.660;2022-10-31T08:04:14;11.40;;;5.07;;
34900;SDS011;21112;51.976;5.660;2022-10-31T08:06:40;14.25;;;6.57;;
34900;SDS011;21112;51.976;5.660;2022-10-31T08:09:07;22.05;;;9.30;;
34900;SDS011;21112;51.976;5.660;2022-10-31T08:11:33;26.45;;;10.95;;
34900;SDS011;21112;51.976;5.660;2022-10-31T08:14:00;21.77;;;9.10;;
34900;SDS011;21112;51.976;5.660;2022-10-31T08:16:28;14.68;;;7.05;;
34900;SDS011;21112;51.976;5.660;2022-10-31T08:18:55;19.83;;;8.75;;
34900;SDS011;21112;51.976;5.660;2022-10-31T08:21:21;14.00;;;5.47;;
34900;SDS011;21112;51.976;5.660;2022-10-31T08:23:48;9.68;;;4.50;;
34900;SDS011;21112;51.976;5.660;2022-10-31T08:26:15;20.45;;;8.48;;
34900;SDS011;21112;51.976;5.660;2022-10-31T08:28:41;23.90;;;7.90;;
34900;SDS011;21112;51.976;5.660;2022-10-31T08:31:08;11.55;;;5.35;;
34900;SDS011;21112;51.976;5.660;2022-10-31T08:33:36;14.70;;;6.43;;
34900;SDS011;21112;51.976;5.660;2022-10-31T08:36:03;13.13;;;6.53;;
34900;SDS011;21112;51.976;5.660;2022-10-31T08:38:29;14.77;;;7.30;;
34900;SDS011;21112;51.976;5.660;2022-10-31T08:40:56;17.73;;;7.05;;
34900;SDS011;21112;51.976;5.660;2022-10-31T08:43:23;14.07;;;6.70;;
34900;SDS011;21112;51.976;5.660;2022-10-31T08:45:50;16.50;;;7.05;;
34900;SDS011;21112;51.976;5.660;2022-10-31T08:48:19;16.73;;;7.65;;
34900;SDS011;21112;51.976;5.660;2022-10-31T08:50:47;10.77;;;4.78;;
34900;SDS011;21112;51.976;5.660;2022-10-31T08:53:15;12.07;;;5.45;;
34900;SDS011;21112;51.976;5.660;2022-10-31T08:55:42;16.45;;;6.93;;
34900;SDS011;21112;51.976;5.660;2022-10-31T08:58:10;15.15;;;6.40;;
34900;SDS011;21112;51.976;5.660;2022-10-31T09:00:37;20.45;;;6.05;;
34900;SDS011;21112;51.976;5.660;2022-10-31T09:03:04;11.75;;;5.18;;
34900;SDS011;21112;51.976;5.660;2022-10-31T09:05:31;15.48;;;6.15;;
34900;SDS011;21112;51.976;5.660;2022-10-31T09:08:00;14.98;;;7.00;;
34900;SDS011;21112;51.976;5.660;2022-10-31T09:12:56;10.32;;;4.22;;
34900;SDS011;21112;51.976;5.660;2022-10-31T09:15:23;13.98;;;5.65;;
34900;SDS011;21112;51.976;5.660;2022-10-31T09:17:50;11.73;;;5.57;;
34900;SDS011;21112;51.976;5.660;2022-10-31T09:20:16;10.13;;;4.57;;
34900;SDS011;21112;51.976;5.660;2022-10-31T09:22:43;8.32;;;4.15;;
34900;SDS011;21112;51.976;5.660;2022-10-31T09:25:14;13.60;;;6.07;;
34900;SDS011;21112;51.976;5.660;2022-10-31T09:27:40;12.23;;;5.22;;
34900;SDS011;21112;51.976;5.660;2022-10-31T09:30:07;9.00;;;4.43;;
34900;SDS011;21112;51.976;5.660;2022-10-31T09:32:34;11.90;;;4.32;;
34900;SDS011;21112;51.976;5.660;2022-10-31T09:35:01;9.38;;;4.15;;
34900;SDS011;21112;51.976;5.660;2022-10-31T09:37:27;12.73;;;4.53;;
34900;SDS011;21112;51.976;5.660;2022-10-31T09:39:54;8.57;;;4.25;;
34900;SDS011;21112;51.976;5.660;2022-10-31T09:42:27;11.30;;;4.47;;
34900;SDS011;21112;51.976;5.660;2022-10-31T09:44:58;9.05;;;3.85;;
34900;SDS011;21112;51.976;5.660;2022-10-31T09:47:29;10.57;;;4.47;;
34900;SDS011;21112;51.976;5.660;2022-10-31T09:50:05;11.93;;;4.82;;
34900;SDS011;21112;51.976;5.660;2022-10-31T09:52:34;13.77;;;5.43;;
34900;SDS011;21112;51.976;5.660;2022-10-31T09:55:03;12.70;;;5.75;;
34900;SDS011;21112;51.976;5.660;2022-10-31T09:57:33;13.50;;;5.72;;
34900;SDS011;21112;51.976;5.660;2022-10-31T10:00:03;12.38;;;5.05;;
34900;SDS011;21112;51.976;5.660;2022-10-31T10:02:31;11.07;;;4.95;;
34900;SDS011;21112;51.976;5.660;2022-10-31T10:04:59;12.93;;;5.28;;
34900;SDS011;21112;51.976;5.660;2022-10-31T10:07:32;9.45;;;4.75;;
34900;SDS011;21112;51.976;5.660;2022-10-31T10:10:02;13.07;;;6.18;;
34900;SDS011;21112;51.976;5.660;2022-10-31T10:12:34;13.90;;;5.47;;
34900;SDS011;21112;51.976;5.660;2022-10-31T10:15:09;14.43;;;6.32;;
34900;SDS011;21112;51.976;5.660;2022-10-31T10:17:44;9.27;;;4.47;;
34900;SDS011;21112;51.976;5.660;2022-10-31T10:20:23;15.00;;;6.13;;
34900;SDS011;21112;51.976;5.660;2022-10-31T10:22:54;11.60;;;5.38;;
34900;SDS011;21112;51.976;5.660;2022-10-31T10:25:22;17.15;;;6.65;;
34900;SDS011;21112;51.976;5.660;2022-10-31T10:27:52;12.43;;;5.28;;
34900;SDS011;21112;51.976;5.660;2022-10-31T10:30:21;15.52;;;6.00;;
34900;SDS011;21112;51.976;5.660;2022-10-31T10:32:49;19.10;;;7.17;;
34900;SDS011;21112;51.976;5.660;2022-10-31T10:35:22;15.65;;;6.63;;
34900;SDS011;21112;51.976;5.660;2022-10-31T10:37:50;13.05;;;5.80;;
34900;SDS011;21112;51.976;5.660;2022-10-31T10:40:20;16.45;;;7.05;;
34900;SDS011;21112;51.976;5.660;2022-10-31T10:45:32;12.25;;;5.80;;
34900;SDS011;21112;51.976;5.660;2022-10-31T10:48:20;19.88;;;7.25;;
34900;SDS011;21112;51.976;5.660;2022-10-31T10:50:55;16.00;;;7.25;;
34900;SDS011;21112;51.976;5.660;2022-10-31T10:53:36;18.77;;;7.47;;
34900;SDS011;21112;51.976;5.660;2022-10-31T10:56:15;21.88;;;6.50;;
34900;SDS011;21112;51.976;5.660;2022-10-31T10:58:43;23.02;;;8.07;;
34900;SDS011;21112;51.976;5.660;2022-10-31T11:01:12;14.65;;;6.70;;
34900;SDS011;21112;51.976;5.660;2022-10-31T11:03:40;14.75;;;7.25;;
34900;SDS011;21112;51.976;5.660;2022-10-31T11:06:16;13.75;;;6.60;;
34900;SDS011;21112;51.976;5.660;2022-10-31T11:08:42;18.50;;;7.05;;
34900;SDS011;21112;51.976;5.660;2022-10-31T11:11:11;14.57;;;6.43;;
34900;SDS011;21112;51.976;5.660;2022-10-31T11:13:40;18.08;;;6.75;;
34900;SDS011;21112;51.976;5.660;2022-10-31T11:16:08;17.90;;;7.68;;
34900;SDS011;21112;51.976;5.660;2022-10-31T11:18:37;15.02;;;7.28;;
34900;SDS011;21112;51.976;5.660;2022-10-31T11:23:30;20.85;;;6.85;;
34900;SDS011;21112;51.976;5.660;2022-10-31T11:26:00;22.90;;;9.50;;
34900;SDS011;21112;51.976;5.660;2022-10-31T11:28:28;20.60;;;7.65;;
34900;SDS011;21112;51.976;5.660;2022-10-31T11:30:55;19.58;;;8.68;;
34900;SDS011;21112;51.976;5.660;2022-10-31T11:33:25;23.00;;;8.73;;
34900;SDS011;21112;51.976;5.660;2022-10-31T11:35:54;27.48;;;9.57;;
34900;SDS011;21112;51.976;5.660;2022-10-31T11:38:21;21.55;;;8.88;;
34900;SDS011;21112;51.976;5.660;2022-10-31T11:40:57;27.15;;;9.88;;
34900;SDS011;21112;51.976;5.660;2022-10-31T11:43:24;23.63;;;9.38;;
34900;SDS011;21112;51.976;5.660;2022-10-31T11:45:51;23.88;;;9.57;;
34900;SDS011;21112;51.976;5.660;2022-10-31T11:48:19;21.92;;;7.78;;
34900;SDS011;21112;51.976;5.660;2022-10-31T11:50:47;24.05;;;9.85;;
34900;SDS011;21112;51.976;5.660;2022-10-31T11:53:16;23.55;;;8.02;;
34900;SDS011;21112;51.976;5.660;2022-10-31T11:58:19;20.42;;;8.45;;
34900;SDS011;21112;51.976;5.660;2022-10-31T12:00:48;25.00;;;8.40;;
34900;SDS011;21112;51.976;5.660;2022-10-31T12:03:20;22.42;;;10.00;;
34900;SDS011;21112;51.976;5.660;2022-10-31T12:05:53;24.58;;;9.77;;
34900;SDS011;21112;51.976;5.660;2022-10-31T12:08:21;25.15;;;10.38;;
34900;SDS011;21112;51.976;5.660;2022-10-31T12:11:04;24.35;;;9.93;;
34900;SDS011;21112;51.976;5.660;2022-10-31T12:13:33;24.15;;;9.52;;
34900;SDS011;21112;51.976;5.660;2022-10-31T12:16:02;30.23;;;10.00;;
34900;SDS011;21112;51.976;5.660;2022-10-31T12:18:43;29.23;;;9.05;;
34900;SDS011;21112;51.976;5.660;2022-10-31T12:21:15;21.00;;;8.98;;
34900;SDS011;21112;51.976;5.660;2022-10-31T12:23:49;26.38;;;10.18;;
34900;SDS011;21112;51.976;5.660;2022-10-31T12:26:22;29.00;;;10.90;;
34900;SDS011;21112;51.976;5.660;2022-10-31T12:28:56;25.45;;;9.73;;
34900;SDS011;21112;51.976;5.660;2022-10-31T12:31:29;32.17;;;10.77;;
34900;SDS011;21112;51.976;5.660;2022-10-31T12:34:00;26.88;;;9.93;;
34900;SDS011;21112;51.976;5.660;2022-10-31T12:36:39;28.33;;;10.52;;
34900;SDS011;21112;51.976;5.660;2022-10-31T12:39:23;31.40;;;10.90;;
34900;SDS011;21112;51.976;5.660;2022-10-31T12:41:51;27.25;;;9.85;;
34900;SDS011;21112;51.976;5.660;2022-10-31T12:44:32;30.20;;;11.18;;
34900;SDS011;21112;51.976;5.660;2022-10-31T12:47:09;26.77;;;10.48;;
34900;SDS011;21112;51.976;5.660;2022-10-31T12:49:42;30.17;;;11.60;;
34900;SDS011;21112;51.976;5.660;2022-10-31T12:52:15;26.48;;;11.13;;
34900;SDS011;21112;51.976;5.660;2022-10-31T12:57:29;32.17;;;10.35;;
34900;SDS011;21112;51.976;5.660;2022-10-31T13:00:02;27.58;;;11.13;;
34900;SDS011;21112;51.976;5.660;2022-10-31T13:02:31;23.92;;;10.32;;
34900;SDS011;21112;51.976;5.660;2022-10-31T13:05:01;33.30;;;12.80;;
34900;SDS011;21112;51.976;5.660;2022-10-31T13:09:56;31.90;;;11.15;;
34900;SDS011;21112;51.976;5.660;2022-10-31T13:14:51;25.00;;;9.27;;
34900;SDS011;21112;51.976;5.660;2022-10-31T13:17:22;29.95;;;10.80;;
34900;SDS011;21112;51.976;5.660;2022-10-31T13:19:49;33.28;;;12.82;;
34900;SDS011;21112;51.976;5.660;2022-10-31T13:22:18;30.33;;;10.80;;
34900;SDS011;21112;51.976;5.660;2022-10-31T13:24:48;29.20;;;10.38;;
34900;SDS011;21112;51.976;5.660;2022-10-31T13:27:18;30.42;;;12.00;;
34900;SDS011;21112;51.976;5.660;2022-10-31T13:29:49;30.33;;;11.10;;
34900;SDS011;21112;51.976;5.660;2022-10-31T13:32:20;31.35;;;11.75;;
34900;SDS011;21112;51.976;5.660;2022-10-31T13:34:50;28.42;;;11.35;;
34900;SDS011;21112;51.976;5.660;2022-10-31T13:37:19;28.13;;;10.57;;
34900;SDS011;21112;51.976;5.660;2022-10-31T13:39:50;28.63;;;10.60;;
34900;SDS011;21112;51.976;5.660;2022-10-31T13:42:19;28.05;;;11.35;;
34900;SDS011;21112;51.976;5.660;2022-10-31T13:44:48;31.85;;;11.30;;
34900;SDS011;21112;51.976;5.660;2022-10-31T13:47:22;30.38;;;11.40;;
34900;SDS011;21112;51.976;5.660;2022-10-31T13:49:49;25.90;;;10.52;;
34900;SDS011;21112;51.976;5.660;2022-10-31T13:52:24;26.92;;;11.80;;
34900;SDS011;21112;51.976;5.660;2022-10-31T13:54:51;30.60;;;11.38;;
34900;SDS011;21112;51.976;5.660;2022-10-31T13:57:29;24.05;;;10.35;;
34900;SDS011;21112;51.976;5.660;2022-10-31T13:59:57;31.17;;;10.77;;
34900;SDS011;21112;51.976;5.660;2022-10-31T14:02:27;34.03;;;11.73;;
34900;SDS011;21112;51.976;5.660;2022-10-31T14:04:55;24.85;;;10.27;;
34900;SDS011;21112;51.976;5.660;2022-10-31T14:07:24;31.35;;;11.05;;
34900;SDS011;21112;51.976;5.660;2022-10-31T14:09:55;30.58;;;10.15;;
34900;SDS011;21112;51.976;5.660;2022-10-31T14:12:24;31.00;;;10.73;;
34900;SDS011;21112;51.976;5.660;2022-10-31T14:17:20;21.67;;;9.25;;
34900;SDS011;21112;51.976;5.660;2022-10-31T14:20:00;31.27;;;11.18;;
34900;SDS011;21112;51.976;5.660;2022-10-31T14:22:31;24.10;;;9.40;;
34900;SDS011;21112;51.976;5.660;2022-10-31T14:24:58;28.77;;;9.98;;
34900;SDS011;21112;51.976;5.660;2022-10-31T14:27:35;29.63;;;10.98;;
34900;SDS011;21112;51.976;5.660;2022-10-31T14:30:16;30.55;;;10.77;;
34900;SDS011;21112;51.976;5.660;2022-10-31T14:32:43;25.90;;;9.82;;
34900;SDS011;21112;51.976;5.660;2022-10-31T14:35:14;30.08;;;11.32;;
34900;SDS011;21112;51.976;5.660;2022-10-31T14:37:48;24.75;;;9.32;;
34900;SDS011;21112;51.976;5.660;2022-10-31T14:40:21;23.67;;;8.75;;
34900;SDS011;21112;51.976;5.660;2022-10-31T14:43:04;24.67;;;9.73;;
34900;SDS011;21112;51.976;5.660;2022-10-31T14:45:35;30.38;;;11.85;;
34900;SDS011;21112;51.976;5.660;2022-10-31T14:48:10;20.45;;;8.73;;
34900;SDS011;21112;51.976;5.660;2022-10-31T14:50:42;24.70;;;10.15;;
34900;SDS011;21112;51.976;5.660;2022-10-31T14:53:12;25.58;;;9.60;;
34900;SDS011;21112;51.976;5.660;2022-10-31T14:55:41;28.23;;;10.55;;
34900;SDS011;21112;51.976;5.660;2022-10-31T14:58:09;26.98;;;9.95;;
34900;SDS011;21112;51.976;5.660;2022-10-31T15:00:41;26.77;;;10.30;;
34900;SDS011;21112;51.976;5.660;2022-10-31T15:03:10;26.95;;;9.93;;
34900;SDS011;21112;51.976;5.660;2022-10-31T15:05:45;31.90;;;11.20;;
34900;SDS011;21112;51.976;5.660;2022-10-31T15:08:13;32.35;;;10.70;;
34900;SDS011;21112;51.976;5.660;2022-10-31T15:10:44;24.17;;;9.77;;
34900;SDS011;21112;51.976;5.660;2022-10-31T15:13:16;23.50;;;9.77;;
34900;SDS011;21112;51.976;5.660;2022-10-31T15:15:43;25.20;;;10.25;;
34900;SDS011;21112;51.976;5.660;2022-10-31T15:18:14;26.60;;;10.07;;
34900;SDS011;21112;51.976;5.660;2022-10-31T15:20:43;26.90;;;9.93;;